sensor_id;sensor_type;location;lat;lon;timestamp;pressure;altitude;pressure_sealevel;temperature;humidity
27643;BME280;15053;48.618;10.024;2022-07-18T00:02:01;95084.31;;;18.15;49.13
27643;BME280;15053;48.618;10.024;2022-07-18T00:04:29;95079.97;;;18.10;48.98
27643;BME280;15053;48.618;10.024;2022-07-18T00:06:56;95078.75;;;18.08;48.60
27643;BME280;15053;48.618;10.024;2022-07-18T00:09:23;95076.91;;;18.00;48.40
27643;BME280;15053;48.618;10.024;2022-07-18T00:11:51;95075.38;;;17.99;48.47
27643;BME280;15053;48.618;10.024;2022-07-18T00:14:20;95079.53;;;18.00;48.26
27643;BME280;15053;48.618;10.024;2022-07-18T00:16:47;95072.09;;;18.02;48.30
27643;BME280;15053;48.618;10.024;2022-07-18T00:19:15;95075.50;;;18.02;48.29
27643;BME280;15053;48.618;10.024;2022-07-18T00:21:42;95073.19;;;18.01;48.18
27643;BME280;15053;48.618;10.024;2022-07-18T00:24:09;95077.06;;;18.03;48.39
27643;BME280;15053;48.618;10.024;2022-07-18T00:26:36;95075.38;;;17.99;48.37
27643;BME280;15053;48.618;10.024;2022-07-18T00:29:03;95083.56;;;17.97;48.21
27643;BME280;15053;48.618;10.024;2022-07-18T00:31:32;95082.78;;;17.97;48.38
27643;BME280;15053;48.618;10.024;2022-07-18T00:33:59;95076.16;;;17.91;48.50
27643;BME280;15053;48.618;10.024;2022-07-18T00:36:27;95071.50;;;17.88;48.64
27643;BME280;15053;48.618;10.024;2022-07-18T00:38:54;95068.53;;;17.89;48.52
27643;BME280;15053;48.618;10.024;2022-07-18T00:41:21;95062.97;;;17.91;48.56
27643;BME280;15053;48.618;10.024;2022-07-18T00:43:48;95066.06;;;17.93;48.46
27643;BME280;15053;48.618;10.024;2022-07-18T00:46:15;95066.38;;;17.83;48.52
27643;BME280;15053;48.618;10.024;2022-07-18T00:48:42;95078.97;;;17.77;48.94
27643;BME280;15053;48.618;10.024;2022-07-18T00:51:09;95069.94;;;17.61;48.93
27643;BME280;15053;48.618;10.024;2022-07-18T00:53:36;95071.97;;;17.55;49.24
27643;BME280;15053;48.618;10.024;2022-07-18T00:56:03;95077.97;;;17.47;49.39
27643;BME280;15053;48.618;10.024;2022-07-18T00:58:30;95089.28;;;17.39;49.66
27643;BME280;15053;48.618;10.024;2022-07-18T01:00:58;95081.06;;;17.32;50.07
27643;BME280;15053;48.618;10.024;2022-07-18T01:03:43;95074.72;;;17.25;50.45
27643;BME280;15053;48.618;10.024;2022-07-18T01:06:10;95071.13;;;17.21;50.70
27643;BME280;15053;48.618;10.024;2022-07-18T01:08:37;95073.47;;;17.22;51.00
27643;BME280;15053;48.618;10.024;2022-07-18T01:11:05;95076.09;;;17.22;51.08
27643;BME280;15053;48.618;10.024;2022-07-18T01:13:32;95083.53;;;17.20;50.95
27643;BME280;15053;48.618;10.024;2022-07-18T01:15:59;95074.22;;;17.14;51.33
27643;BME280;15053;48.618;10.024;2022-07-18T01:18:26;95076.06;;;17.05;51.78
27643;BME280;15053;48.618;10.024;2022-07-18T01:20:53;95069.06;;;17.00;51.79
27643;BME280;15053;48.618;10.024;2022-07-18T01:23:20;95069.41;;;16.99;51.39
27643;BME280;15053;48.618;10.024;2022-07-18T01:25:47;95064.59;;;17.01;51.43
27643;BME280;15053;48.618;10.024;2022-07-18T01:28:13;95062.44;;;17.03;51.61
27643;BME280;15053;48.618;10.024;2022-07-18T01:30:40;95078.56;;;17.10;51.33
27643;BME280;15053;48.618;10.024;2022-07-18T01:33:07;95075.31;;;17.13;51.23
27643;BME280;15053;48.618;10.024;2022-07-18T01:35:34;95074.84;;;17.11;50.80
27643;BME280;15053;48.618;10.024;2022-07-18T01:38:02;95077.63;;;17.15;50.47
27643;BME280;15053;48.618;10.024;2022-07-18T01:40:29;95080.56;;;17.13;50.52
27643;BME280;15053;48.618;10.024;2022-07-18T01:42:56;95068.78;;;17.02;50.75
27643;BME280;15053;48.618;10.024;2022-07-18T01:45:23;95076.50;;;16.98;50.39
27643;BME280;15053;48.618;10.024;2022-07-18T01:47:50;95072.63;;;16.96;50.57
27643;BME280;15053;48.618;10.024;2022-07-18T01:50:16;95068.44;;;16.95;50.00
27643;BME280;15053;48.618;10.024;2022-07-18T01:52:43;95069.81;;;16.92;50.36
27643;BME280;15053;48.618;10.024;2022-07-18T01:55:10;95067.34;;;16.87;50.40
27643;BME280;15053;48.618;10.024;2022-07-18T01:57:37;95069.69;;;16.89;50.61
27643;BME280;15053;48.618;10.024;2022-07-18T02:00:07;95078.19;;;16.86;50.38
27643;BME280;15053;48.618;10.024;2022-07-18T02:02:35;95078.75;;;16.74;50.36
27643;BME280;15053;48.618;10.024;2022-07-18T02:05:02;95080.75;;;16.69;50.37
27643;BME280;15053;48.618;10.024;2022-07-18T02:07:38;95074.38;;;16.61;50.99
27643;BME280;15053;48.618;10.024;2022-07-18T02:10:13;95073.75;;;16.56;50.94
27643;BME280;15053;48.618;10.024;2022-07-18T02:12:40;95077.25;;;16.51;51.02
27643;BME280;15053;48.618;10.024;2022-07-18T02:15:08;95072.28;;;16.49;51.48
27643;BME280;15053;48.618;10.024;2022-07-18T02:17:35;95074.94;;;16.49;51.70
27643;BME280;15053;48.618;10.024;2022-07-18T02:20:04;95069.19;;;16.47;51.88
27643;BME280;15053;48.618;10.024;2022-07-18T02:22:31;95069.03;;;16.44;52.32
27643;BME280;15053;48.618;10.024;2022-07-18T02:24:58;95066.34;;;16.35;52.48
27643;BME280;15053;48.618;10.024;2022-07-18T02:27:25;95068.34;;;16.30;52.41
27643;BME280;15053;48.618;10.024;2022-07-18T02:29:52;95055.63;;;16.23;52.43
27643;BME280;15053;48.618;10.024;2022-07-18T02:32:19;95064.03;;;16.34;52.68
27643;BME280;15053;48.618;10.024;2022-07-18T02:34:45;95059.72;;;16.38;52.17
27643;BME280;15053;48.618;10.024;2022-07-18T02:37:14;95061.78;;;16.49;52.12
27643;BME280;15053;48.618;10.024;2022-07-18T02:39:40;95056.88;;;16.57;51.48
27643;BME280;15053;48.618;10.024;2022-07-18T02:42:07;95063.38;;;16.59;51.75
27643;BME280;15053;48.618;10.024;2022-07-18T02:44:34;95041.16;;;16.43;51.54
27643;BME280;15053;48.618;10.024;2022-07-18T02:47:02;95053.50;;;16.56;51.06
27643;BME280;15053;48.618;10.024;2022-07-18T02:49:29;95058.75;;;16.65;50.68
27643;BME280;15053;48.618;10.024;2022-07-18T02:51:58;95057.81;;;16.61;50.98
27643;BME280;15053;48.618;10.024;2022-07-18T02:54:27;95067.72;;;16.55;50.62
27643;BME280;15053;48.618;10.024;2022-07-18T02:56:54;95062.97;;;16.43;51.08
27643;BME280;15053;48.618;10.024;2022-07-18T02:59:20;95075.50;;;16.38;50.98
27643;BME280;15053;48.618;10.024;2022-07-18T03:01:47;95073.31;;;16.31;50.60
27643;BME280;15053;48.618;10.024;2022-07-18T03:04:16;95073.25;;;16.23;51.01
27643;BME280;15053;48.618;10.024;2022-07-18T03:06:43;95074.47;;;16.17;51.19
27643;BME280;15053;48.618;10.024;2022-07-18T03:09:10;95064.34;;;16.10;51.48
27643;BME280;15053;48.618;10.024;2022-07-18T03:11:37;95064.22;;;16.15;51.42
27643;BME280;15053;48.618;10.024;2022-07-18T03:14:04;95067.34;;;16.17;51.41
27643;BME280;15053;48.618;10.024;2022-07-18T03:16:31;95058.81;;;16.12;51.80
27643;BME280;15053;48.618;10.024;2022-07-18T03:18:58;95073.94;;;16.06;52.11
27643;BME280;15053;48.618;10.024;2022-07-18T03:21:24;95067.72;;;16.02;52.20
27643;BME280;15053;48.618;10.024;2022-07-18T03:23:51;95072.97;;;16.02;52.40
27643;BME280;15053;48.618;10.024;2022-07-18T03:26:18;95065.22;;;15.97;52.12
27643;BME280;15053;48.618;10.024;2022-07-18T03:28:45;95077.44;;;16.02;52.31
27643;BME280;15053;48.618;10.024;2022-07-18T03:31:11;95080.38;;;16.00;52.21
27643;BME280;15053;48.618;10.024;2022-07-18T03:33:39;95081.75;;;15.98;52.03
27643;BME280;15053;48.618;10.024;2022-07-18T03:36:06;95083.59;;;15.97;52.39
27643;BME280;15053;48.618;10.024;2022-07-18T03:38:32;95085.16;;;15.98;52.19
27643;BME280;15053;48.618;10.024;2022-07-18T03:40:59;95082.34;;;15.94;52.02
27643;BME280;15053;48.618;10.024;2022-07-18T03:43:26;95089.19;;;15.96;52.34
27643;BME280;15053;48.618;10.024;2022-07-18T03:45:52;95094.00;;;16.02;52.11
27643;BME280;15053;48.618;10.024;2022-07-18T03:48:19;95091.41;;;16.11;51.82
27643;BME280;15053;48.618;10.024;2022-07-18T03:50:45;95085.56;;;16.14;51.66
27643;BME280;15053;48.618;10.024;2022-07-18T03:53:12;95091.66;;;16.23;51.74
27643;BME280;15053;48.618;10.024;2022-07-18T03:55:39;95091.34;;;16.24;51.94
27643;BME280;15053;48.618;10.024;2022-07-18T03:58:05;95093.38;;;16.27;52.01
27643;BME280;15053;48.618;10.024;2022-07-18T04:00:32;95079.41;;;16.18;51.51
27643;BME280;15053;48.618;10.024;2022-07-18T04:03:00;95090.75;;;16.27;51.52
27643;BME280;15053;48.618;10.024;2022-07-18T04:05:31;95085.03;;;16.25;51.13
27643;BME280;15053;48.618;10.024;2022-07-18T04:07:58;95083.19;;;16.26;51.41
27643;BME280;15053;48.618;10.024;2022-07-18T04:10:24;95084.41;;;16.28;51.31
27643;BME280;15053;48.618;10.024;2022-07-18T04:12:53;95087.06;;;16.28;51.03
27643;BME280;15053;48.618;10.024;2022-07-18T04:15:22;95077.91;;;16.26;50.74
27643;BME280;15053;48.618;10.024;2022-07-18T04:17:49;95081.28;;;16.26;50.31
27643;BME280;15053;48.618;10.024;2022-07-18T04:20:18;95072.66;;;16.26;50.92
27643;BME280;15053;48.618;10.024;2022-07-18T04:22:53;95079.63;;;16.30;50.37
27643;BME280;15053;48.618;10.024;2022-07-18T04:25:21;95080.56;;;16.34;51.02
27643;BME280;15053;48.618;10.024;2022-07-18T04:27:49;95081.53;;;16.38;50.75
27643;BME280;15053;48.618;10.024;2022-07-18T04:30:18;95073.03;;;16.41;50.90
27643;BME280;15053;48.618;10.024;2022-07-18T04:32:46;95080.16;;;16.41;50.80
27643;BME280;15053;48.618;10.024;2022-07-18T04:35:19;95080.94;;;16.41;50.55
27643;BME280;15053;48.618;10.024;2022-07-18T04:37:45;95079.53;;;16.44;50.92
27643;BME280;15053;48.618;10.024;2022-07-18T04:40:13;95087.13;;;16.45;51.42
27643;BME280;15053;48.618;10.024;2022-07-18T04:42:40;95077.38;;;16.46;51.76
27643;BME280;15053;48.618;10.024;2022-07-18T04:45:07;95072.63;;;16.48;52.13
27643;BME280;15053;48.618;10.024;2022-07-18T04:47:34;95068.00;;;16.53;51.77
27643;BME280;15053;48.618;10.024;2022-07-18T04:50:01;95066.97;;;16.63;51.45
27643;BME280;15053;48.618;10.024;2022-07-18T04:52:38;95065.94;;;16.73;51.05
27643;BME280;15053;48.618;10.024;2022-07-18T04:55:06;95076.16;;;16.83;51.11
27643;BME280;15053;48.618;10.024;2022-07-18T04:57:33;95070.31;;;16.94;50.70
27643;BME280;15053;48.618;10.024;2022-07-18T05:00:12;95069.69;;;17.06;51.00
27643;BME280;15053;48.618;10.024;2022-07-18T05:02:48;95064.16;;;17.16;50.83
27643;BME280;15053;48.618;10.024;2022-07-18T05:05:16;95067.56;;;17.25;50.88
27643;BME280;15053;48.618;10.024;2022-07-18T05:07:44;95064.81;;;17.30;51.02
27643;BME280;15053;48.618;10.024;2022-07-18T05:10:13;95068.22;;;17.39;50.59
27643;BME280;15053;48.618;10.024;2022-07-18T05:12:42;95072.41;;;17.49;50.22
27643;BME280;15053;48.618;10.024;2022-07-18T05:15:11;95075.53;;;17.59;49.64
27643;BME280;15053;48.618;10.024;2022-07-18T05:17:39;95067.94;;;17.66;49.59
27643;BME280;15053;48.618;10.024;2022-07-18T05:20:08;95071.50;;;17.79;48.61
27643;BME280;15053;48.618;10.024;2022-07-18T05:22:36;95065.13;;;17.89;48.09
27643;BME280;15053;48.618;10.024;2022-07-18T05:25:05;95074.41;;;18.03;47.80
27643;BME280;15053;48.618;10.024;2022-07-18T05:27:32;95071.16;;;18.15;47.16
27643;BME280;15053;48.618;10.024;2022-07-18T05:29:59;95077.31;;;18.27;46.82
27643;BME280;15053;48.618;10.024;2022-07-18T05:32:27;95078.84;;;18.37;46.73
27643;BME280;15053;48.618;10.024;2022-07-18T05:34:53;95076.81;;;18.51;46.47
27643;BME280;15053;48.618;10.024;2022-07-18T05:37:20;95081.41;;;18.63;46.04
27643;BME280;15053;48.618;10.024;2022-07-18T05:39:47;95078.09;;;18.74;46.00
27643;BME280;15053;48.618;10.024;2022-07-18T05:42:14;95078.22;;;18.87;45.19
27643;BME280;15053;48.618;10.024;2022-07-18T05:44:41;95074.13;;;18.98;44.58
27643;BME280;15053;48.618;10.024;2022-07-18T05:47:08;95075.31;;;19.09;44.16
27643;BME280;15053;48.618;10.024;2022-07-18T05:49:35;95074.28;;;19.22;43.98
27643;BME280;15053;48.618;10.024;2022-07-18T05:52:02;95076.69;;;19.35;43.88
27643;BME280;15053;48.618;10.024;2022-07-18T05:54:29;95075.69;;;19.49;43.86
27643;BME280;15053;48.618;10.024;2022-07-18T05:56:55;95067.50;;;19.62;43.86
27643;BME280;15053;48.618;10.024;2022-07-18T05:59:22;95076.72;;;19.77;44.01
27643;BME280;15053;48.618;10.024;2022-07-18T06:01:49;95074.25;;;19.92;43.70
27643;BME280;15053;48.618;10.024;2022-07-18T06:04:16;95066.03;;;20.06;43.51
27643;BME280;15053;48.618;10.024;2022-07-18T06:06:42;95066.16;;;20.22;43.47
27643;BME280;15053;48.618;10.024;2022-07-18T06:09:11;95070.22;;;20.40;42.59
27643;BME280;15053;48.618;10.024;2022-07-18T06:11:39;95064.75;;;20.57;42.70
27643;BME280;15053;48.618;10.024;2022-07-18T06:14:05;95072.47;;;20.74;41.99
27643;BME280;15053;48.618;10.024;2022-07-18T06:16:32;95066.97;;;20.91;41.84
27643;BME280;15053;48.618;10.024;2022-07-18T06:18:59;95080.78;;;21.09;41.25
27643;BME280;15053;48.618;10.024;2022-07-18T06:21:26;95077.22;;;21.29;40.42
27643;BME280;15053;48.618;10.024;2022-07-18T06:23:53;95068.47;;;21.41;40.43
27643;BME280;15053;48.618;10.024;2022-07-18T06:26:19;95075.50;;;21.61;40.28
27643;BME280;15053;48.618;10.024;2022-07-18T06:28:47;95073.69;;;21.77;40.04
27643;BME280;15053;48.618;10.024;2022-07-18T06:31:15;95072.56;;;21.90;39.78
27643;BME280;15053;48.618;10.024;2022-07-18T06:33:43;95067.22;;;22.02;39.41
27643;BME280;15053;48.618;10.024;2022-07-18T06:36:10;95074.00;;;22.15;38.91
27643;BME280;15053;48.618;10.024;2022-07-18T06:38:39;95071.72;;;22.29;38.65
27643;BME280;15053;48.618;10.024;2022-07-18T06:41:06;95072.53;;;22.46;38.76
27643;BME280;15053;48.618;10.024;2022-07-18T06:43:33;95068.34;;;22.60;38.10
27643;BME280;15053;48.618;10.024;2022-07-18T06:46:00;95063.31;;;22.71;37.96
27643;BME280;15053;48.618;10.024;2022-07-18T06:48:26;95071.53;;;22.81;37.50
27643;BME280;15053;48.618;10.024;2022-07-18T06:50:55;95078.97;;;22.91;37.15
27643;BME280;15053;48.618;10.024;2022-07-18T06:53:21;95062.84;;;23.00;36.79
27643;BME280;15053;48.618;10.024;2022-07-18T06:55:48;95071.16;;;23.14;36.47
27643;BME280;15053;48.618;10.024;2022-07-18T06:58:15;95069.09;;;23.23;36.65
27643;BME280;15053;48.618;10.024;2022-07-18T07:00:41;95073.84;;;23.33;36.39
27643;BME280;15053;48.618;10.024;2022-07-18T07:03:08;95067.69;;;23.45;36.20
27643;BME280;15053;48.618;10.024;2022-07-18T07:05:35;95078.53;;;23.56;36.01
27643;BME280;15053;48.618;10.024;2022-07-18T07:08:01;95068.47;;;23.65;36.01
27643;BME280;15053;48.618;10.024;2022-07-18T07:10:28;95080.03;;;23.72;36.02
27643;BME280;15053;48.618;10.024;2022-07-18T07:12:55;95074.84;;;23.79;36.03
27643;BME280;15053;48.618;10.024;2022-07-18T07:15:23;95071.91;;;23.84;35.99
27643;BME280;15053;48.618;10.024;2022-07-18T07:17:51;95081.94;;;23.91;35.83
27643;BME280;15053;48.618;10.024;2022-07-18T07:20:18;95073.25;;;23.94;35.85
27643;BME280;15053;48.618;10.024;2022-07-18T07:22:49;95086.06;;;24.07;35.61
27643;BME280;15053;48.618;10.024;2022-07-18T07:25:17;95079.69;;;24.12;35.11
27643;BME280;15053;48.618;10.024;2022-07-18T07:27:44;95077.59;;;24.21;35.17
27643;BME280;15053;48.618;10.024;2022-07-18T07:30:12;95073.13;;;24.25;34.86
27643;BME280;15053;48.618;10.024;2022-07-18T07:32:41;95069.94;;;24.39;34.88
27643;BME280;15053;48.618;10.024;2022-07-18T07:35:13;95068.56;;;24.48;34.93
27643;BME280;15053;48.618;10.024;2022-07-18T07:37:43;95065.75;;;24.60;35.13
27643;BME280;15053;48.618;10.024;2022-07-18T07:40:10;95070.47;;;24.71;35.44
27643;BME280;15053;48.618;10.024;2022-07-18T07:42:37;95072.94;;;24.79;35.47
27643;BME280;15053;48.618;10.024;2022-07-18T07:45:04;95075.34;;;24.88;35.21
27643;BME280;15053;48.618;10.024;2022-07-18T07:47:31;95068.59;;;24.94;34.94
27643;BME280;15053;48.618;10.024;2022-07-18T07:49:58;95064.91;;;25.02;34.80
27643;BME280;15053;48.618;10.024;2022-07-18T07:52:25;95071.53;;;25.11;34.60
27643;BME280;15053;48.618;10.024;2022-07-18T07:54:51;95062.19;;;25.24;34.21
27643;BME280;15053;48.618;10.024;2022-07-18T07:57:18;95060.41;;;25.32;34.15
27643;BME280;15053;48.618;10.024;2022-07-18T07:59:45;95062.03;;;25.40;33.02
27643;BME280;15053;48.618;10.024;2022-07-18T08:02:13;95058.28;;;25.45;32.90
27643;BME280;15053;48.618;10.024;2022-07-18T08:04:41;95059.53;;;25.51;31.79
27643;BME280;15053;48.618;10.024;2022-07-18T08:07:08;95054.53;;;25.49;31.59
27643;BME280;15053;48.618;10.024;2022-07-18T08:09:35;95052.78;;;25.60;32.33
27643;BME280;15053;48.618;10.024;2022-07-18T08:12:01;95057.53;;;25.74;32.68
27643;BME280;15053;48.618;10.024;2022-07-18T08:14:28;95051.97;;;25.86;31.73
27643;BME280;15053;48.618;10.024;2022-07-18T08:16:55;95054.34;;;25.95;31.30
27643;BME280;15053;48.618;10.024;2022-07-18T08:19:21;95049.84;;;26.02;31.54
27643;BME280;15053;48.618;10.024;2022-07-18T08:21:48;95056.03;;;26.10;31.04
27643;BME280;15053;48.618;10.024;2022-07-18T08:24:15;95055.38;;;26.16;31.29
27643;BME280;15053;48.618;10.024;2022-07-18T08:26:41;95061.66;;;26.34;30.91
27643;BME280;15053;48.618;10.024;2022-07-18T08:29:08;95054.53;;;26.46;29.26
27643;BME280;15053;48.618;10.024;2022-07-18T08:31:35;95059.94;;;26.53;28.77
27643;BME280;15053;48.618;10.024;2022-07-18T08:34:03;95058.81;;;26.54;29.02
27643;BME280;15053;48.618;10.024;2022-07-18T08:36:30;95060.38;;;26.58;28.56
27643;BME280;15053;48.618;10.024;2022-07-18T08:39:04;95060.81;;;26.64;28.09
27643;BME280;15053;48.618;10.024;2022-07-18T08:41:32;95060.09;;;26.70;27.38
27643;BME280;15053;48.618;10.024;2022-07-18T08:43:59;95069.75;;;26.78;26.69
27643;BME280;15053;48.618;10.024;2022-07-18T08:46:27;95063.25;;;26.79;25.96
27643;BME280;15053;48.618;10.024;2022-07-18T08:48:54;95057.50;;;26.77;26.54
27643;BME280;15053;48.618;10.024;2022-07-18T08:51:21;95062.53;;;26.82;26.56
27643;BME280;15053;48.618;10.024;2022-07-18T08:53:50;95063.31;;;26.86;27.32
27643;BME280;15053;48.618;10.024;2022-07-18T08:56:18;95065.66;;;26.91;27.01
27643;BME280;15053;48.618;10.024;2022-07-18T08:58:45;95068.00;;;26.97;27.40
27643;BME280;15053;48.618;10.024;2022-07-18T09:01:12;95072.66;;;27.07;27.73
27643;BME280;15053;48.618;10.024;2022-07-18T09:03:39;95066.22;;;27.18;27.70
27643;BME280;15053;48.618;10.024;2022-07-18T09:06:09;95065.16;;;27.30;27.00
27643;BME280;15053;48.618;10.024;2022-07-18T09:08:38;95061.34;;;27.27;26.63
27643;BME280;15053;48.618;10.024;2022-07-18T09:11:09;95057.13;;;27.26;26.88
27643;BME280;15053;48.618;10.024;2022-07-18T09:13:56;95063.25;;;27.27;27.44
27643;BME280;15053;48.618;10.024;2022-07-18T09:16:23;95063.28;;;27.37;27.12
27643;BME280;15053;48.618;10.024;2022-07-18T09:18:50;95056.16;;;27.52;26.78
27643;BME280;15053;48.618;10.024;2022-07-18T09:21:22;95062.66;;;27.58;26.11
27643;BME280;15053;48.618;10.024;2022-07-18T09:23:51;95063.84;;;27.64;27.04
27643;BME280;15053;48.618;10.024;2022-07-18T09:26:38;95065.06;;;27.77;26.22
27643;BME280;15053;48.618;10.024;2022-07-18T09:29:06;95067.72;;;27.74;26.21
27643;BME280;15053;48.618;10.024;2022-07-18T09:31:52;95066.19;;;27.73;25.97
27643;BME280;15053;48.618;10.024;2022-07-18T09:34:35;95066.56;;;27.71;25.69
27643;BME280;15053;48.618;10.024;2022-07-18T09:37:02;95063.88;;;27.68;26.10
27643;BME280;15053;48.618;10.024;2022-07-18T09:39:28;95068.09;;;27.72;26.15
27643;BME280;15053;48.618;10.024;2022-07-18T09:42:15;95063.97;;;27.92;26.16
27643;BME280;15053;48.618;10.024;2022-07-18T09:44:42;95062.47;;;27.98;26.01
27643;BME280;15053;48.618;10.024;2022-07-18T09:47:09;95070.56;;;28.09;26.37
27643;BME280;15053;48.618;10.024;2022-07-18T09:49:36;95076.34;;;28.15;25.12
27643;BME280;15053;48.618;10.024;2022-07-18T09:52:09;95071.00;;;28.22;25.44
27643;BME280;15053;48.618;10.024;2022-07-18T09:54:41;95067.16;;;28.19;25.39
27643;BME280;15053;48.618;10.024;2022-07-18T09:57:08;95072.53;;;28.23;25.36
27643;BME280;15053;48.618;10.024;2022-07-18T09:59:36;95063.75;;;28.29;25.81
27643;BME280;15053;48.618;10.024;2022-07-18T10:02:04;95067.22;;;28.44;25.86
27643;BME280;15053;48.618;10.024;2022-07-18T10:04:31;95055.03;;;28.67;26.27
27643;BME280;15053;48.618;10.024;2022-07-18T10:06:58;95063.44;;;28.87;26.23
27643;BME280;15053;48.618;10.024;2022-07-18T10:09:25;95061.53;;;29.05;26.40
27643;BME280;15053;48.618;10.024;2022-07-18T10:11:53;95068.41;;;29.20;25.82
27643;BME280;15053;48.618;10.024;2022-07-18T10:14:28;95053.47;;;29.23;25.83
27643;BME280;15053;48.618;10.024;2022-07-18T10:16:56;95061.91;;;29.29;24.91
27643;BME280;15053;48.618;10.024;2022-07-18T10:19:23;95056.16;;;29.19;24.93
27643;BME280;15053;48.618;10.024;2022-07-18T10:21:50;95060.38;;;29.13;24.25
27643;BME280;15053;48.618;10.024;2022-07-18T10:24:18;95054.63;;;29.18;24.23
27643;BME280;15053;48.618;10.024;2022-07-18T10:27:15;95057.31;;;29.11;24.26
27643;BME280;15053;48.618;10.024;2022-07-18T10:30:11;95055.78;;;29.35;24.30
27643;BME280;15053;48.618;10.024;2022-07-18T10:32:39;95053.06;;;29.49;24.08
27643;BME280;15053;48.618;10.024;2022-07-18T10:35:06;95046.47;;;29.64;24.83
27643;BME280;15053;48.618;10.024;2022-07-18T10:37:34;95045.28;;;29.87;24.35
27643;BME280;15053;48.618;10.024;2022-07-18T10:45:58;95039.72;;;30.25;23.88
27643;BME280;15053;48.618;10.024;2022-07-18T10:51:12;95055.22;;;30.66;23.52
27643;BME280;15053;48.618;10.024;2022-07-18T10:58:55;95036.50;;;31.07;23.03
27643;BME280;15053;48.618;10.024;2022-07-18T11:01:24;95040.31;;;31.09;22.33
27643;BME280;15053;48.618;10.024;2022-07-18T11:07:15;95042.84;;;31.27;22.59
27643;BME280;15053;48.618;10.024;2022-07-18T11:09:44;95046.22;;;31.34;22.80
27643;BME280;15053;48.618;10.024;2022-07-18T11:12:26;95045.31;;;31.51;23.41
27643;BME280;15053;48.618;10.024;2022-07-18T11:15:13;95040.53;;;31.66;22.85
27643;BME280;15053;48.618;10.024;2022-07-18T11:20:33;95036.56;;;31.78;21.82
27643;BME280;15053;48.618;10.024;2022-07-18T11:23:12;95030.88;;;31.69;21.98
27643;BME280;15053;48.618;10.024;2022-07-18T11:25:40;95031.63;;;31.73;22.52
27643;BME280;15053;48.618;10.024;2022-07-18T11:28:27;95023.25;;;31.64;22.33
27643;BME280;15053;48.618;10.024;2022-07-18T11:31:08;95021.66;;;31.70;22.77
27643;BME280;15053;48.618;10.024;2022-07-18T11:33:38;95022.63;;;31.83;22.76
27643;BME280;15053;48.618;10.024;2022-07-18T11:36:10;95023.97;;;32.01;22.53
27643;BME280;15053;48.618;10.024;2022-07-18T11:38:49;95017.16;;;32.20;22.02
27643;BME280;15053;48.618;10.024;2022-07-18T11:41:17;95008.19;;;32.30;22.15
27643;BME280;15053;48.618;10.024;2022-07-18T11:43:46;95008.53;;;32.32;22.03
27643;BME280;15053;48.618;10.024;2022-07-18T11:46:15;95007.00;;;32.31;21.93
27643;BME280;15053;48.618;10.024;2022-07-18T11:48:44;95008.78;;;32.41;21.26
27643;BME280;15053;48.618;10.024;2022-07-18T11:51:17;95009.28;;;32.59;20.89
27643;BME280;15053;48.618;10.024;2022-07-18T11:53:49;94996.50;;;32.63;21.31
27643;BME280;15053;48.618;10.024;2022-07-18T11:56:17;94999.88;;;32.71;21.00
27643;BME280;15053;48.618;10.024;2022-07-18T11:58:45;95000.50;;;32.79;20.70
27643;BME280;15053;48.618;10.024;2022-07-18T12:01:12;95012.47;;;33.01;21.11
27643;BME280;15053;48.618;10.024;2022-07-18T12:03:44;95002.03;;;33.26;21.10
27643;BME280;15053;48.618;10.024;2022-07-18T12:06:17;95001.41;;;33.38;20.22
27643;BME280;15053;48.618;10.024;2022-07-18T12:08:54;95001.00;;;33.40;20.46
27643;BME280;15053;48.618;10.024;2022-07-18T12:11:37;95008.06;;;33.57;20.55
27643;BME280;15053;48.618;10.024;2022-07-18T12:14:22;95005.19;;;33.64;19.83
27643;BME280;15053;48.618;10.024;2022-07-18T12:16:56;94998.03;;;33.73;20.63
27643;BME280;15053;48.618;10.024;2022-07-18T12:19:33;94995.88;;;33.84;19.53
27643;BME280;15053;48.618;10.024;2022-07-18T12:22:06;94996.16;;;33.90;19.87
27643;BME280;15053;48.618;10.024;2022-07-18T12:24:51;94987.09;;;33.80;19.73
27643;BME280;15053;48.618;10.024;2022-07-18T12:27:21;94993.88;;;33.89;19.91
27643;BME280;15053;48.618;10.024;2022-07-18T12:32:36;94983.16;;;34.01;20.30
27643;BME280;15053;48.618;10.024;2022-07-18T12:35:23;94978.19;;;34.19;19.88
27643;BME280;15053;48.618;10.024;2022-07-18T12:38:09;94985.28;;;34.29;19.53
27643;BME280;15053;48.618;10.024;2022-07-18T12:40:57;94990.97;;;34.35;19.04
27643;BME280;15053;48.618;10.024;2022-07-18T12:45:57;94973.03;;;34.41;19.34
27643;BME280;15053;48.618;10.024;2022-07-18T12:48:26;94979.47;;;34.47;19.34
27643;BME280;15053;48.618;10.024;2022-07-18T12:50:59;94968.31;;;34.61;18.95
27643;BME280;15053;48.618;10.024;2022-07-18T12:53:31;94963.91;;;34.67;19.22
27643;BME280;15053;48.618;10.024;2022-07-18T12:55:58;94965.09;;;34.82;19.64
27643;BME280;15053;48.618;10.024;2022-07-18T12:58:28;94964.06;;;35.09;19.19
27643;BME280;15053;48.618;10.024;2022-07-18T13:00:55;94963.53;;;35.14;19.02
27643;BME280;15053;48.618;10.024;2022-07-18T13:03:32;94958.34;;;35.19;18.76
27643;BME280;15053;48.618;10.024;2022-07-18T13:05:59;94958.09;;;35.30;18.30
27643;BME280;15053;48.618;10.024;2022-07-18T13:08:26;94958.94;;;35.27;17.96
27643;BME280;15053;48.618;10.024;2022-07-18T13:10:54;94955.00;;;35.15;18.09
27643;BME280;15053;48.618;10.024;2022-07-18T13:13:21;94953.13;;;35.12;18.02
27643;BME280;15053;48.618;10.024;2022-07-18T13:15:48;94952.72;;;34.97;18.40
27643;BME280;15053;48.618;10.024;2022-07-18T13:18:15;94955.78;;;35.00;18.02
27643;BME280;15053;48.618;10.024;2022-07-18T13:20:42;94956.28;;;34.94;18.51
27643;BME280;15053;48.618;10.024;2022-07-18T13:23:08;94946.66;;;34.77;18.15
27643;BME280;15053;48.618;10.024;2022-07-18T13:25:37;94946.06;;;34.86;18.64